createdAt,value
2018-06-23T00:01:15.343Z,12.90
2018-06-23T00:03:43.698Z,12.90
2018-06-23T00:06:11.818Z,12.80
2018-06-23T00:08:40.028Z,12.80
2018-06-23T00:11:08.177Z,12.90
2018-06-23T00:13:36.292Z,12.90
2018-06-23T00:16:04.461Z,12.90
2018-06-23T00:18:32.572Z,12.90
2018-06-23T00:21:00.749Z,12.90
2018-06-23T00:23:29.001Z,12.80
2018-06-23T00:26:02.377Z,12.70
2018-06-23T00:28:30.516Z,12.60
2018-06-23T00:30:58.655Z,12.60
2018-06-23T00:33:26.841Z,12.50
2018-06-23T00:35:54.996Z,12.50
2018-06-23T00:38:23.114Z,12.40
2018-06-23T00:40:51.249Z,12.40
2018-06-23T00:43:19.416Z,12.40
2018-06-23T00:45:47.545Z,12.40
2018-06-23T00:48:17.281Z,12.50
2018-06-23T00:50:45.384Z,12.50
2018-06-23T00:53:14.052Z,12.40
2018-06-23T00:55:42.233Z,12.40
2018-06-23T00:58:10.403Z,12.40
2018-06-23T01:00:38.509Z,12.40
2018-06-23T01:03:06.658Z,12.40
2018-06-23T01:05:34.768Z,12.40
2018-06-23T01:08:02.876Z,12.30
2018-06-23T01:10:31.109Z,12.30
2018-06-23T01:12:59.232Z,12.30
2018-06-23T01:15:27.352Z,12.30
2018-06-23T01:17:55.531Z,12.10
2018-06-23T01:20:23.640Z,11.80
2018-06-23T01:22:51.789Z,11.90
2018-06-23T01:25:19.932Z,11.70
2018-06-23T01:27:48.048Z,11.80
2018-06-23T01:30:16.172Z,11.80
2018-06-23T01:32:44.308Z,11.70
2018-06-23T01:35:12.441Z,11.70
2018-06-23T01:37:40.588Z,11.50
2018-06-23T01:40:08.817Z,11.50
2018-06-23T01:42:36.937Z,11.60
2018-06-23T01:45:05.137Z,11.60
2018-06-23T01:47:33.279Z,11.60
2018-06-23T01:50:01.754Z,11.60
2018-06-23T01:52:29.860Z,11.50
2018-06-23T01:54:58.002Z,11.50
2018-06-23T01:57:26.125Z,11.50
2018-06-23T01:59:54.262Z,11.50
2018-06-23T02:02:22.470Z,11.60
2018-06-23T02:04:50.714Z,11.50
2018-06-23T02:07:18.853Z,11.60
2018-06-23T02:09:46.986Z,11.60
2018-06-23T02:12:15.100Z,11.60
2018-06-23T02:14:48.534Z,11.50
2018-06-23T02:17:22.081Z,11.50
2018-06-23T02:19:55.941Z,11.30
2018-06-23T02:22:29.468Z,11.20
2018-06-23T02:25:03.084Z,11.20
2018-06-23T02:27:36.630Z,11.30
2018-06-23T02:30:10.133Z,11.30
2018-06-23T02:32:44.735Z,11.30
2018-06-23T02:35:14.062Z,11.20
2018-06-23T02:37:42.185Z,11.10
2018-06-23T02:40:10.384Z,11.10
2018-06-23T02:42:38.509Z,11.00
2018-06-23T02:45:07.092Z,11.00
2018-06-23T02:47:35.278Z,11.00
2018-06-23T02:50:04.294Z,11.00
2018-06-23T02:52:32.567Z,11.10
2018-06-23T02:55:01.272Z,11.00
2018-06-23T02:57:30.116Z,11.10
2018-06-23T02:59:58.685Z,11.10
2018-06-23T03:02:26.927Z,11.00
2018-06-23T03:04:55.218Z,10.90
2018-06-23T03:07:23.484Z,10.90
2018-06-23T03:09:52.149Z,10.90
2018-06-23T03:12:20.276Z,11.00
2018-06-23T03:14:48.413Z,11.00
2018-06-23T03:17:18.461Z,11.00
2018-06-23T03:19:50.824Z,11.10
2018-06-23T03:22:19.088Z,11.10
2018-06-23T03:24:47.299Z,11.00
2018-06-23T03:27:15.346Z,11.10
2018-06-23T03:29:43.522Z,11.10
2018-06-23T03:32:12.220Z,10.90
2018-06-23T03:34:40.385Z,11.00
2018-06-23T03:37:09.585Z,11.00
2018-06-23T03:39:37.740Z,11.10
2018-06-23T03:42:05.992Z,11.00
2018-06-23T03:44:34.127Z,11.10
2018-06-23T03:47:02.257Z,11.00
2018-06-23T03:49:30.395Z,10.90
2018-06-23T03:52:08.881Z,11.00
2018-06-23T03:54:36.997Z,11.10
2018-06-23T03:57:05.224Z,11.00
2018-06-23T03:59:34.102Z,10.90
2018-06-23T04:02:02.225Z,10.90
2018-06-23T04:04:30.337Z,10.90
2018-06-23T04:06:58.481Z,10.90
2018-06-23T04:09:26.600Z,11.00
2018-06-23T04:11:55.300Z,11.00
2018-06-23T04:14:23.540Z,11.00
2018-06-23T04:16:51.728Z,11.10
2018-06-23T04:19:19.827Z,11.10
2018-06-23T04:21:48.011Z,11.00
2018-06-23T04:24:16.214Z,11.00
2018-06-23T04:26:44.825Z,11.00
2018-06-23T04:29:13.019Z,11.10
2018-06-23T04:31:41.165Z,11.20
2018-06-23T04:34:09.317Z,11.20
2018-06-23T04:36:37.466Z,11.20
2018-06-23T04:39:06.869Z,11.30
2018-06-23T04:41:35.185Z,11.30
2018-06-23T04:44:03.311Z,11.50
2018-06-23T04:46:31.432Z,11.60
2018-06-23T04:48:59.569Z,11.70
2018-06-23T04:51:29.258Z,11.90
2018-06-23T04:54:07.529Z,11.90
2018-06-23T04:56:35.648Z,12.00
2018-06-23T04:59:03.774Z,12.00
2018-06-23T05:01:32.526Z,12.10
2018-06-23T05:04:00.658Z,12.10
2018-06-23T05:06:28.797Z,12.10
2018-06-23T05:08:56.945Z,12.10
2018-06-23T05:11:25.168Z,12.10
2018-06-23T05:13:54.051Z,12.20
2018-06-23T05:16:22.188Z,12.30
2018-06-23T05:18:50.311Z,12.30
2018-06-23T05:21:18.429Z,12.30
2018-06-23T05:23:46.832Z,12.30
2018-06-23T05:26:14.952Z,12.40
2018-06-23T05:28:43.076Z,12.60
2018-06-23T05:31:11.229Z,12.60
2018-06-23T05:33:39.364Z,12.60
2018-06-23T05:36:07.480Z,12.60
2018-06-23T05:38:35.616Z,12.70
2018-06-23T05:41:03.732Z,12.70
2018-06-23T05:43:31.882Z,12.80
2018-06-23T05:46:00.516Z,13.00
2018-06-23T05:48:28.650Z,13.00
2018-06-23T05:50:56.777Z,13.10
2018-06-23T05:53:24.932Z,13.20
2018-06-23T05:55:53.169Z,13.30
2018-06-23T05:58:21.743Z,13.50
2018-06-23T06:00:49.914Z,13.30
2018-06-23T06:03:18.032Z,13.40
2018-06-23T06:05:46.159Z,13.60
2018-06-23T06:08:14.444Z,13.70
2018-06-23T06:10:42.560Z,13.80
2018-06-23T06:13:10.692Z,13.90
2018-06-23T06:15:38.839Z,14.10
2018-06-23T06:18:06.937Z,14.00
2018-06-23T06:20:35.047Z,13.80
2018-06-23T06:23:03.201Z,13.90
2018-06-23T06:25:31.308Z,14.10
2018-06-23T06:27:59.430Z,14.10
2018-06-23T06:30:28.092Z,13.80
2018-06-23T06:32:56.337Z,13.90
2018-06-23T06:35:24.483Z,14.20
2018-06-23T06:37:52.616Z,14.50
2018-06-23T06:40:20.788Z,14.40
2018-06-23T06:42:48.898Z,14.50
2018-06-23T06:45:17.049Z,14.40
2018-06-23T06:47:45.168Z,14.40
2018-06-23T06:50:13.359Z,14.50
2018-06-23T06:52:41.786Z,14.40
2018-06-23T06:55:09.921Z,14.40
2018-06-23T06:57:39.113Z,14.70
2018-06-23T07:00:07.274Z,14.80
2018-06-23T07:02:35.413Z,14.90
2018-06-23T07:05:03.604Z,15.10
2018-06-23T07:07:31.736Z,15.30
2018-06-23T07:09:59.838Z,15.30
2018-06-23T07:12:27.972Z,15.50
2018-06-23T07:14:56.183Z,15.70
2018-06-23T07:17:24.315Z,15.80
2018-06-23T07:19:52.485Z,15.80
2018-06-23T07:22:20.624Z,15.60
2018-06-23T07:24:48.766Z,15.80
2018-06-23T07:27:16.916Z,15.90
2018-06-23T07:29:46.314Z,16.10
2018-06-23T07:32:14.442Z,16.00
2018-06-23T07:34:43.707Z,16.50
2018-06-23T07:37:11.738Z,16.40
2018-06-23T07:39:39.856Z,16.90
2018-06-23T07:42:07.986Z,17.10
2018-06-23T07:44:36.121Z,16.80
2018-06-23T07:47:04.253Z,16.90
2018-06-23T07:49:32.388Z,17.00
2018-06-23T07:52:00.538Z,17.10
2018-06-23T07:54:29.379Z,17.30
2018-06-23T07:56:57.540Z,17.80
2018-06-23T07:59:26.304Z,18.00
2018-06-23T08:01:54.567Z,17.90
2018-06-23T08:04:22.680Z,17.90
2018-06-23T08:06:50.813Z,17.80
2018-06-23T08:09:18.929Z,17.80
2018-06-23T08:11:47.114Z,17.20
2018-06-23T08:14:15.257Z,17.30
2018-06-23T08:16:43.394Z,17.80
2018-06-23T08:19:11.560Z,17.90
2018-06-23T08:21:41.841Z,18.90
2018-06-23T08:24:09.965Z,18.90
2018-06-23T08:26:38.201Z,18.90
2018-06-23T08:29:07.098Z,18.90
2018-06-23T08:31:35.224Z,18.90
2018-06-23T08:34:10.400Z,19.00
2018-06-23T08:36:38.558Z,19.00
2018-06-23T08:39:07.231Z,18.50
2018-06-23T08:41:35.533Z,19.30
2018-06-23T08:44:03.645Z,20.20
2018-06-23T08:46:31.777Z,20.00
2018-06-23T08:48:59.925Z,19.80
2018-06-23T08:51:28.045Z,19.90
2018-06-23T08:53:56.206Z,20.20
2018-06-23T08:56:24.369Z,19.90
2018-06-23T08:58:52.494Z,20.10
2018-06-23T09:01:22.005Z,21.20
2018-06-23T09:03:50.147Z,21.20
2018-06-23T09:06:18.250Z,19.50
2018-06-23T09:08:46.403Z,19.90
2018-06-23T09:11:14.521Z,20.50
2018-06-23T09:13:42.699Z,20.50
2018-06-23T09:16:10.789Z,21.20
2018-06-23T09:18:39.020Z,22.00
2018-06-23T09:21:07.158Z,20.90
2018-06-23T09:23:35.803Z,21.00
2018-06-23T09:26:03.938Z,20.60
2018-06-23T09:28:32.052Z,20.80
2018-06-23T09:31:00.184Z,20.90
2018-06-23T09:33:28.300Z,21.00
2018-06-23T09:35:56.421Z,20.90
2018-06-23T09:38:24.664Z,20.40
2018-06-23T09:40:52.786Z,20.50
2018-06-23T09:43:20.960Z,20.60
2018-06-23T09:45:49.100Z,20.40
2018-06-23T09:48:17.224Z,20.50
2018-06-23T09:50:45.364Z,20.10
2018-06-23T09:53:13.511Z,20.40
2018-06-23T09:55:41.632Z,20.30
2018-06-23T09:58:09.754Z,20.20
2018-06-23T10:00:37.885Z,20.00
2018-06-23T10:03:06.665Z,20.30
2018-06-23T10:05:34.776Z,20.40
2018-06-23T10:08:03.423Z,20.40
2018-06-23T10:10:31.535Z,20.40
2018-06-23T10:12:59.648Z,20.30
2018-06-23T10:15:27.814Z,20.60
2018-06-23T10:17:55.912Z,20.40
2018-06-23T10:20:24.112Z,20.20
2018-06-23T10:22:52.236Z,19.70
2018-06-23T10:25:20.356Z,19.60
2018-06-23T10:27:48.468Z,20.20
2018-06-23T10:30:16.649Z,19.90
2018-06-23T10:32:45.775Z,20.40
2018-06-23T10:35:13.901Z,20.80
2018-06-23T10:37:42.312Z,19.70
2018-06-23T10:40:10.459Z,19.20
2018-06-23T10:42:38.604Z,19.40
2018-06-23T10:45:06.834Z,19.00
2018-06-23T10:47:34.944Z,18.70
2018-06-23T10:50:03.436Z,19.10
2018-06-23T10:52:32.282Z,19.50
2018-06-23T10:55:01.135Z,19.90
2018-06-23T10:57:29.249Z,20.20
2018-06-23T10:59:57.378Z,19.90
2018-06-23T11:02:25.504Z,19.60
2018-06-23T11:05:04.433Z,19.20
2018-06-23T11:10:06.780Z,18.80
2018-06-23T11:12:34.972Z,19.10
2018-06-23T11:15:03.160Z,19.00
2018-06-23T11:17:31.309Z,19.40
2018-06-23T11:19:59.468Z,20.20
2018-06-23T11:22:27.695Z,19.80
2018-06-23T11:24:55.852Z,19.20
2018-06-23T11:27:23.993Z,19.60
2018-06-23T11:29:52.103Z,19.30
2018-06-23T11:32:20.542Z,19.60
2018-06-23T11:34:48.657Z,20.80
2018-06-23T11:37:16.827Z,20.70
2018-06-23T11:39:51.354Z,20.70
2018-06-23T11:42:19.505Z,20.40
2018-06-23T11:44:47.696Z,20.80
2018-06-23T11:47:15.897Z,20.60
2018-06-23T11:49:44.038Z,20.80
2018-06-23T11:52:12.272Z,21.10
2018-06-23T11:54:40.964Z,21.00
2018-06-23T11:57:09.776Z,21.40
2018-06-23T11:59:37.888Z,21.20
2018-06-23T12:02:06.117Z,20.80
2018-06-23T12:04:34.245Z,20.70
2018-06-23T12:07:02.899Z,20.80
2018-06-23T12:09:31.084Z,20.80
2018-06-23T12:11:59.203Z,20.40
2018-06-23T12:14:27.353Z,21.20
2018-06-23T12:16:55.505Z,20.80
2018-06-23T12:19:23.633Z,21.00
2018-06-23T12:21:51.833Z,20.50
2018-06-23T12:24:19.996Z,20.50
2018-06-23T12:26:48.132Z,20.60
2018-06-23T12:29:16.265Z,20.40
2018-06-23T12:31:44.396Z,20.70
2018-06-23T12:34:12.547Z,21.20
2018-06-23T12:36:40.664Z,21.10
2018-06-23T12:39:10.005Z,21.40
2018-06-23T12:41:38.390Z,21.30
2018-06-23T12:44:06.532Z,21.30
2018-06-23T12:46:34.808Z,21.00
2018-06-23T12:49:02.929Z,20.70
2018-06-23T12:51:31.773Z,20.30
2018-06-23T12:53:59.942Z,20.30
2018-06-23T12:56:28.077Z,20.80
2018-06-23T12:58:57.226Z,20.80
2018-06-23T13:01:25.940Z,20.80
2018-06-23T13:03:54.240Z,20.60
2018-06-23T13:06:22.526Z,19.60
2018-06-23T13:08:51.708Z,20.00
2018-06-23T13:11:19.832Z,20.30
2018-06-23T13:13:47.960Z,20.50
2018-06-23T13:16:16.117Z,21.50
2018-06-23T13:18:44.422Z,21.20
2018-06-23T13:21:12.587Z,20.70
2018-06-23T13:23:40.730Z,21.30
2018-06-23T13:26:08.905Z,20.70
2018-06-23T13:28:37.101Z,20.80
2018-06-23T13:31:05.260Z,21.10
2018-06-23T13:33:33.380Z,21.00
2018-06-23T13:36:01.508Z,21.20
2018-06-23T13:38:29.648Z,21.20
2018-06-23T13:41:00.865Z,21.40
2018-06-23T13:43:28.975Z,20.90
2018-06-23T13:45:57.113Z,20.40
2018-06-23T13:48:25.214Z,20.10
2018-06-23T13:50:53.364Z,20.30
2018-06-23T13:53:21.497Z,21.00
2018-06-23T13:55:49.632Z,20.80
2018-06-23T13:58:17.766Z,20.90
2018-06-23T14:00:45.892Z,20.90
2018-06-23T14:03:14.072Z,20.70
2018-06-23T14:05:42.209Z,19.90
2018-06-23T14:08:10.321Z,19.70
2018-06-23T14:10:39.472Z,19.70
2018-06-23T14:13:07.600Z,19.50
2018-06-23T14:15:35.709Z,18.80
2018-06-23T14:18:03.854Z,18.40
2018-06-23T14:20:32.079Z,18.40
2018-06-23T14:23:00.243Z,18.60
2018-06-23T14:25:28.380Z,18.40
2018-06-23T14:27:57.040Z,18.30
2018-06-23T14:30:26.025Z,18.40
2018-06-23T14:32:54.139Z,18.60
2018-06-23T14:35:22.370Z,19.10
2018-06-23T14:37:50.487Z,19.60
2018-06-23T14:40:18.628Z,20.00
2018-06-23T14:42:46.751Z,20.30
2018-06-23T14:45:14.889Z,20.50
2018-06-23T14:47:42.997Z,20.60
2018-06-23T14:50:11.147Z,20.10
2018-06-23T14:52:39.258Z,20.30
2018-06-23T14:55:07.368Z,20.20
2018-06-23T14:57:35.509Z,20.40
2018-06-23T15:00:03.739Z,20.70
2018-06-23T15:02:31.945Z,20.60
2018-06-23T15:05:00.153Z,20.30
2018-06-23T15:07:28.216Z,19.80
2018-06-23T15:10:07.899Z,19.60
2018-06-23T15:12:48.091Z,19.80
2018-06-23T15:15:16.226Z,19.90
2018-06-23T15:17:44.369Z,19.70
2018-06-23T15:20:12.476Z,19.80
2018-06-23T15:22:41.985Z,19.50
2018-06-23T15:25:10.149Z,19.10
2018-06-23T15:27:38.364Z,19.30
2018-06-23T15:30:07.111Z,19.50
2018-06-23T15:32:35.238Z,19.70
2018-06-23T15:35:03.356Z,19.30
2018-06-23T15:37:32.033Z,19.40
2018-06-23T15:40:00.174Z,19.00
2018-06-23T15:42:28.288Z,19.40
2018-06-23T15:44:56.398Z,18.80
2018-06-23T15:47:24.517Z,18.70
2018-06-23T15:49:52.740Z,19.20
2018-06-23T15:52:20.948Z,19.10
2018-06-23T15:54:49.063Z,18.80
2018-06-23T15:57:17.324Z,19.00
2018-06-23T15:59:45.468Z,19.20
2018-06-23T16:02:13.606Z,19.20
2018-06-23T16:04:41.872Z,19.10
2018-06-23T16:07:10.177Z,19.30
2018-06-23T16:09:38.284Z,19.30
2018-06-23T16:12:06.549Z,19.20
2018-06-23T16:14:36.746Z,19.40
2018-06-23T16:17:05.069Z,19.00
2018-06-23T16:19:33.193Z,19.30
2018-06-23T16:22:01.454Z,19.20
2018-06-23T16:24:29.736Z,19.20
2018-06-23T16:26:57.891Z,19.40
2018-06-23T16:29:26.025Z,19.20
2018-06-23T16:31:54.152Z,18.80
2018-06-23T16:34:22.263Z,18.60
2018-06-23T16:36:50.453Z,18.50
2018-06-23T16:39:18.586Z,18.60
2018-06-23T16:41:46.893Z,18.90
2018-06-23T16:44:15.536Z,18.60
2018-06-23T16:46:43.644Z,18.50
2018-06-23T16:49:11.826Z,18.60
2018-06-23T16:51:41.428Z,18.50
2018-06-23T16:54:09.624Z,18.70
2018-06-23T22:40:45.400Z,14.90
2018-06-23T22:43:13.536Z,14.90
2018-06-23T22:45:41.700Z,14.90
2018-06-23T22:48:09.869Z,14.90
2018-06-23T22:50:37.992Z,14.80
2018-06-23T22:53:06.117Z,14.70
2018-06-23T22:55:34.257Z,14.90
2018-06-23T22:58:02.369Z,14.90
2018-06-23T23:00:30.489Z,14.90
2018-06-23T23:02:58.616Z,14.90
2018-06-23T23:05:26.733Z,15.00
2018-06-23T23:07:55.886Z,15.00
2018-06-23T23:10:23.993Z,15.00
2018-06-23T23:12:52.151Z,15.00
2018-06-23T23:15:20.293Z,15.10
2018-06-23T23:17:48.445Z,15.10
2018-06-23T23:20:16.562Z,15.10
2018-06-23T23:22:45.477Z,15.10
2018-06-23T23:25:13.589Z,15.20
2018-06-23T23:27:41.708Z,15.10
2018-06-23T23:30:09.856Z,15.10
2018-06-23T23:32:37.958Z,15.00
2018-06-23T23:35:06.076Z,14.90
2018-06-23T23:37:34.213Z,14.90
2018-06-23T23:40:02.344Z,15.00
2018-06-23T23:42:31.521Z,15.00
2018-06-23T23:44:59.639Z,14.90
2018-06-23T23:47:27.767Z,14.80
2018-06-23T23:49:56.983Z,14.70
2018-06-23T23:52:26.018Z,14.70
2018-06-23T23:54:54.127Z,14.90
2018-06-23T23:57:22.242Z,14.90
2018-06-23T23:59:50.360Z,14.90
